Список аэропортов
Фактическая погода:

26 апреля, 12:00
Температура: +18°C (+18.0*)
Ветер: северный 3 м/с
Давление: *764 мм
Без существ. явл.
Время (МСК)Темп. СВетерВлажностьДавлениеОблачностьОсадки
09:00+12СВ, 5 м/с74%1019 гПаясно
10:00+12СВ, 6 м/с71%1018 гПаясно
11:00+14СВ, 5 м/с64%1018 гПаясно
12:00+17СВ, 4 м/с56%1017 гПаясно
13:00+19СВ, 3 м/с51%1017 гПаясно
14:00+21СВ, 2 м/с46%1016 гПаясно
15:00+22ЮВ, 1 м/с40%1015 гПаясно
16:00+24ЮЗ, 1 м/с35%1015 гПаясно
17:00+25ЮЗ, 2 м/с31%1014 гПаясно
18:00+26ЮЗ, 3 м/с31%1014 гПаясно
19:00+26ЮЗ, 4 м/с32%1013 гПаясно
20:00+25З, 4 м/с35%1013 гПаясно
21:00+24З, 4 м/с37%1014 гПаясно
22:00+22З, 3 м/с41%1014 гПаясно
23:00+20ЮЗ, 2 м/с50%1015 гПаясно
27 апреля
00:00+18ЮЗ, 2 м/с57%1015 гПаясно
01:00+17ЮЗ, 2 м/с66%1015 гПаясно
02:00+15З, 1 м/с74%1015 гПаясно
03:00+14З, 1 м/с81%1014 гПаясно
04:00+13З, 1 м/с85%1014 гПаясно
05:00+12Штиль 90%1013 гПаясно
06:00+12Ю, 1 м/с91%1013 гПаясно
07:00+11ЮЗ, 1 м/с95%1013 гПаясно
08:00+10СЗ, 1 м/с97%1014 гПаясно
09:00+10Штиль 97%1014 гПамалооблачно
10:00+12В, 1 м/с90%1013 гПамалооблачно
11:00+15ЮВ, 1 м/с79%1013 гПамалооблачно
12:00+18Ю, 2 м/с65%1013 гПаоблачно
13:00+20ЮЗ, 3 м/с48%1012 гПамалооблачно
14:00+21ЮЗ, 4 м/с36%1012 гПаясно
15:00+22ЮЗ, 5 м/с32%1011 гПамалооблачно
16:00+23ЮЗ, 4 м/с29%1011 гПаясно
17:00+23ЮЗ, 5 м/с27%1010 гПаясно
18:00+24ЮЗ, 5 м/с28%1010 гПаясно
19:00+23ЮЗ, 5 м/с31%1009 гПаясно
20:00+22ЮЗ, 6 м/с30%1010 гПас прояснениями
21:00+21ЮЗ, 6 м/с35%1010 гПаоблачно
22:00+19ЮЗ, 5 м/с40%1010 гПаясно
23:00+18ЮЗ, 5 м/с47%1011 гПаясно
28 апреля
00:00+17ЮЗ, 5 м/с53%1011 гПаясно
01:00+16ЮЗ, 5 м/с58%1011 гПаясно
02:00+15ЮЗ, 5 м/с62%1011 гПаясно
03:00+13ЮЗ, 3 м/с70%1011 гПаясно
04:00+11ЮЗ, 1 м/с82%1011 гПаясно
05:00+10ЮВ, 1 м/с88%1011 гПаясно
06:00+9В, 1 м/с93%1010 гПаясно
07:00+8Ю, 1 м/с96%1011 гПаясно
08:00+8ЮВ, 1 м/с97%1011 гПаоблачно
09:00+9Ю, 2 м/с95%1010 гПас прояснениями